Time;durP1;ratioP1;P1;durP2;ratioP2;P2;SDS_P1;SDS_P2;PMS_P1;PMS_P2;Temp;Humidity;BMP_temperature;BMP_pressure;BME280_temperature;BME280_humidity;BME280_pressure;Samples;Min_cycle;Max_cycle;Signal;HPM_P1;HPM_P2
2023/09/07 00:01:19;;;;;;;1.70;1.20;;;24.60;51.90;;;;;;5022032;28;20529;-66
2023/09/07 00:03:45;;;;;;;1.73;1.20;;;24.60;51.90;;;;;;5023017;28;20061;-66
2023/09/07 00:06:11;;;;;;;1.48;1.17;;;24.60;51.90;;;;;;5021776;28;20042;-66
2023/09/07 00:08:36;;;;;;;1.75;1.30;;;24.60;51.90;;;;;;5020923;28;20118;-66
2023/09/07 00:11:04;;;;;;;2.10;1.23;;;24.60;51.90;;;;;;5021367;28;20018;-65
2023/09/07 00:13:30;;;;;;;1.65;1.17;;;24.60;51.90;;;;;;5019527;28;20504;-65
2023/09/07 00:16:05;;;;;;;1.45;1.10;;;24.60;51.90;;;;;;5022316;28;20030;-66
2023/09/07 00:18:31;;;;;;;2.00;1.20;;;24.60;51.90;;;;;;5019982;28;20037;-66
2023/09/07 00:20:57;;;;;;;2.88;1.35;;;24.60;51.90;;;;;;5022231;28;20401;-66
2023/09/07 00:23:22;;;;;;;1.75;1.20;;;24.50;51.80;;;;;;5021577;28;20029;-66
2023/09/07 00:25:48;;;;;;;2.55;1.20;;;24.50;51.80;;;;;;5023363;28;20385;-66
2023/09/07 00:28:14;;;;;;;1.73;1.23;;;24.60;52.40;;;;;;5020090;28;20416;-66
2023/09/07 00:30:40;;;;;;;1.63;1.13;;;24.60;52.40;;;;;;5021981;28;20026;-66
2023/09/07 00:33:06;;;;;;;1.33;1.10;;;24.50;51.80;;;;;;5021693;28;20030;-66
2023/09/07 00:35:32;;;;;;;1.92;1.20;;;24.60;51.90;;;;;;5020353;28;20049;-66
2023/09/07 00:37:58;;;;;;;2.00;1.30;;;24.50;51.80;;;;;;5022810;28;20056;-66
2023/09/07 00:40:25;;;;;;;1.90;1.20;;;24.50;51.90;;;;;;5020376;28;20442;-66
2023/09/07 00:42:50;;;;;;;1.58;1.05;;;24.50;51.80;;;;;;5020141;28;20112;-66
2023/09/07 00:45:16;;;;;;;1.73;1.20;;;24.50;51.90;;;;;;5021635;28;20096;-66
2023/09/07 00:47:42;;;;;;;2.03;1.13;;;24.50;51.90;;;;;;5020582;28;20072;-66
2023/09/07 00:50:08;;;;;;;1.75;1.30;;;24.50;51.90;;;;;;5021697;28;20029;-66
2023/09/07 00:52:39;;;;;;;1.30;0.98;;;24.50;51.90;;;;;;5019878;28;20048;-66
2023/09/07 00:55:06;;;;;;;1.40;1.00;;;24.50;51.90;;;;;;5020658;28;20022;-66
2023/09/07 00:57:32;;;;;;;1.85;1.25;;;24.50;51.90;;;;;;5020361;28;20625;-66
2023/09/07 00:59:58;;;;;;;1.60;1.10;;;24.50;51.90;;;;;;5020351;28;20460;-66
2023/09/07 01:02:24;;;;;;;1.50;1.00;;;24.50;51.90;;;;;;5019340;28;20036;-66
2023/09/07 01:04:51;;;;;;;1.30;0.90;;;24.50;51.90;;;;;;5020796;28;20060;-66
2023/09/07 01:07:32;;;;;;;1.50;1.30;;;24.50;51.90;;;;;;5021511;28;20473;-66
2023/09/07 01:10:00;;;;;;;1.20;1.00;;;24.50;52.00;;;;;;5019720;28;20103;-66
2023/09/07 01:12:26;;;;;;;1.40;1.15;;;24.50;52.00;;;;;;5019226;28;20022;-66
2023/09/07 01:14:52;;;;;;;1.20;0.90;;;24.50;52.00;;;;;;5018469;28;20044;-66
2023/09/07 01:17:20;;;;;;;1.38;1.00;;;24.50;51.90;;;;;;5020899;28;20084;-65
2023/09/07 01:19:46;;;;;;;1.48;1.00;;;24.50;52.00;;;;;;5019878;28;20499;-66
2023/09/07 01:22:14;;;;;;;1.70;1.17;;;24.40;52.00;;;;;;5020742;28;20036;-66
2023/09/07 01:24:41;;;;;;;1.40;1.08;;;24.40;52.00;;;;;;5018737;28;20025;-66
2023/09/07 01:27:07;;;;;;;1.83;1.20;;;24.40;52.00;;;;;;5021229;28;20037;-62
2023/09/07 01:29:33;;;;;;;1.73;1.10;;;24.40;52.00;;;;;;5020026;28;20032;-63
2023/09/07 01:31:59;;;;;;;1.13;0.90;;;24.40;52.10;;;;;;5020763;28;20032;-62
2023/09/07 01:34:25;;;;;;;1.60;1.10;;;24.40;52.10;;;;;;5018503;28;20030;-63
2023/09/07 01:36:50;;;;;;;1.25;1.02;;;24.40;52.10;;;;;;5018370;28;20087;-62
2023/09/07 01:39:17;;;;;;;1.63;1.08;;;24.40;52.10;;;;;;5020355;28;20026;-63
2023/09/07 01:41:43;;;;;;;1.05;0.85;;;24.40;52.10;;;;;;5016719;28;20108;-64
2023/09/07 01:44:09;;;;;;;1.60;1.10;;;24.40;52.10;;;;;;5020600;28;20038;-62
2023/09/07 01:46:35;;;;;;;1.55;1.13;;;24.40;52.10;;;;;;5019364;28;20114;-62
2023/09/07 01:49:01;;;;;;;1.48;1.10;;;24.40;52.10;;;;;;5019535;28;20481;-63
2023/09/07 01:51:27;;;;;;;1.17;1.00;;;24.30;52.10;;;;;;5016783;28;20047;-63
2023/09/07 01:53:53;;;;;;;1.27;1.10;;;24.40;52.20;;;;;;5018329;28;20022;-62
2023/09/07 01:56:19;;;;;;;1.27;1.00;;;24.30;52.10;;;;;;5018347;28;20499;-64
2023/09/07 01:58:45;;;;;;;2.03;1.20;;;24.30;52.20;;;;;;5018174;28;20025;-64
2023/09/07 02:01:21;;;;;;;1.50;1.10;;;24.30;52.10;;;;;;5019337;28;20064;-63
2023/09/07 02:03:47;;;;;;;1.65;1.15;;;24.30;52.20;;;;;;5018304;28;20159;-63
2023/09/07 02:06:13;;;;;;;1.67;1.10;;;24.30;52.20;;;;;;5018731;28;20054;-63
2023/09/07 02:08:38;;;;;;;1.40;0.95;;;24.30;52.20;;;;;;5018687;28;20509;-62
2023/09/07 02:11:05;;;;;;;1.83;1.20;;;24.30;52.70;;;;;;5016625;28;20057;-63
2023/09/07 02:13:31;;;;;;;1.65;1.10;;;24.30;52.20;;;;;;5016865;28;20090;-62
2023/09/07 02:15:57;;;;;;;1.45;1.00;;;24.30;52.20;;;;;;5020904;28;20045;-62
2023/09/07 02:18:22;;;;;;;1.40;1.00;;;24.30;52.20;;;;;;5020940;28;20044;-61
2023/09/07 02:20:48;;;;;;;1.35;1.00;;;24.30;52.20;;;;;;5020324;28;20041;-61
2023/09/07 02:23:14;;;;;;;1.52;1.20;;;24.30;52.30;;;;;;5023656;28;20104;-63
2023/09/07 02:25:40;;;;;;;1.38;1.00;;;24.30;52.30;;;;;;5022826;28;20036;-62
2023/09/07 02:28:06;;;;;;;1.35;0.90;;;24.30;52.30;;;;;;5022301;28;20033;-65
2023/09/07 02:30:32;;;;;;;1.45;1.08;;;24.30;52.30;;;;;;5026234;28;20025;-65
2023/09/07 02:32:58;;;;;;;1.48;1.10;;;24.30;52.30;;;;;;5022964;28;20026;-65
2023/09/07 02:35:23;;;;;;;1.55;1.05;;;24.30;52.30;;;;;;5023034;28;20140;-65
2023/09/07 02:37:49;;;;;;;2.00;1.08;;;24.30;52.30;;;;;;5024953;28;20477;-67
2023/09/07 02:40:15;;;;;;;1.45;1.10;;;24.20;52.30;;;;;;5021673;28;20521;-67
2023/09/07 02:42:42;;;;;;;1.50;1.10;;;24.30;52.40;;;;;;5020891;28;20125;-67
2023/09/07 02:45:11;;;;;;;1.30;0.98;;;24.20;52.30;;;;;;5023640;28;20040;-67
2023/09/07 02:47:38;;;;;;;1.38;1.08;;;24.20;52.30;;;;;;5025435;28;20535;-67
2023/09/07 02:50:05;;;;;;;1.30;1.00;;;24.30;52.90;;;;;;5020956;28;20030;-67
2023/09/07 02:52:31;;;;;;;1.55;1.08;;;24.20;52.40;;;;;;5024965;28;20384;-67
2023/09/07 02:54:56;;;;;;;1.55;1.10;;;24.20;52.30;;;;;;5020407;28;20017;-67
2023/09/07 02:57:22;;;;;;;1.38;1.02;;;24.20;52.30;;;;;;5021998;28;20033;-67
2023/09/07 02:59:47;;;;;;;1.13;1.00;;;24.20;52.40;;;;;;5021434;28;20115;-67
2023/09/07 03:02:14;;;;;;;1.23;1.00;;;24.20;52.40;;;;;;5019025;28;20054;-67
2023/09/07 03:04:40;;;;;;;1.05;0.90;;;24.20;52.40;;;;;;5023367;28;20099;-67
2023/09/07 03:07:05;;;;;;;1.90;1.10;;;24.20;52.40;;;;;;5024956;28;20552;-67
2023/09/07 03:09:31;;;;;;;1.55;0.93;;;24.20;52.40;;;;;;5024199;28;20038;-66
2023/09/07 03:11:56;;;;;;;1.83;1.13;;;24.20;52.40;;;;;;5020908;28;20370;-69
2023/09/07 03:14:22;;;;;;;1.30;1.00;;;24.20;52.40;;;;;;5021874;28;20032;-68
2023/09/07 03:16:51;;;;;;;1.70;1.00;;;24.20;52.40;;;;;;5022581;28;20041;-68
2023/09/07 03:19:17;;;;;;;;;;;24.20;52.50;;;;;;5024374;28;20116;-68
2023/09/07 03:21:43;;;;;;;1.33;0.95;;;24.20;52.40;;;;;;5020914;28;20331;-67
2023/09/07 03:24:08;;;;;;;1.48;1.00;;;24.10;52.40;;;;;;5020926;28;20034;-67
2023/09/07 03:26:34;;;;;;;1.15;1.00;;;24.20;52.50;;;;;;5022038;28;20029;-67
2023/09/07 03:29:00;;;;;;;1.30;0.98;;;24.20;52.50;;;;;;5022576;28;20489;-67
2023/09/07 03:31:26;;;;;;;1.48;1.02;;;24.20;53.00;;;;;;5023933;28;20026;-67
2023/09/07 03:33:51;;;;;;;1.73;1.10;;;24.10;52.40;;;;;;5021957;28;20177;-67
2023/09/07 03:36:17;;;;;;;1.38;1.00;;;24.10;52.50;;;;;;5023573;28;20440;-67
2023/09/07 03:38:43;;;;;;;1.13;1.00;;;24.20;52.50;;;;;;5023789;28;20040;-65
2023/09/07 03:41:09;;;;;;;1.08;0.90;;;24.10;52.40;;;;;;5015235;28;20057;-65
2023/09/07 03:43:34;;;;;;;1.10;1.00;;;24.10;52.50;;;;;;5019235;28;20466;-65
2023/09/07 03:46:00;;;;;;;1.38;0.95;;;24.10;52.50;;;;;;5019765;28;20465;-66
2023/09/07 03:48:26;;;;;;;1.40;1.10;;;24.10;52.50;;;;;;5021558;28;20021;-63
2023/09/07 03:50:51;;;;;;;1.50;1.10;;;24.10;52.50;;;;;;5021585;28;20472;-63
2023/09/07 03:53:17;;;;;;;1.30;1.00;;;24.10;52.50;;;;;;5020595;28;20029;-61
2023/09/07 03:55:44;;;;;;;1.33;1.10;;;24.10;52.50;;;;;;5022864;28;20108;-61
2023/09/07 03:58:11;;;;;;;1.10;1.00;;;24.10;52.60;;;;;;5020329;28;20025;-62
2023/09/07 04:00:40;;;;;;;1.42;1.10;;;24.10;52.60;;;;;;5019526;28;20025;-61
2023/09/07 04:03:07;;;;;;;1.27;1.08;;;24.10;52.60;;;;;;5021782;28;20052;-61
2023/09/07 04:05:33;;;;;;;1.60;1.17;;;24.10;52.60;;;;;;5021595;28;20021;-62
2023/09/07 04:08:00;;;;;;;1.20;1.00;;;24.10;52.60;;;;;;5020175;28;20449;-62
2023/09/07 04:10:26;;;;;;;1.45;1.10;;;24.10;52.60;;;;;;5020275;28;20441;-61
2023/09/07 04:12:51;;;;;;;1.17;1.08;;;24.10;52.60;;;;;;5021063;28;20103;-61
2023/09/07 04:15:17;;;;;;;1.38;1.00;;;24.10;53.10;;;;;;5022848;28;20438;-60
2023/09/07 04:17:42;;;;;;;1.42;1.10;;;24.10;52.60;;;;;;5021858;28;20068;-62
2023/09/07 04:20:10;;;;;;;1.40;1.10;;;24.10;52.60;;;;;;5021385;28;20068;-62
2023/09/07 04:22:36;;;;;;;1.40;1.10;;;24.10;52.70;;;;;;5020716;28;20034;-62
2023/09/07 04:25:01;;;;;;;1.40;1.10;;;24.10;52.60;;;;;;5020974;28;20103;-64
2023/09/07 04:27:27;;;;;;;1.50;1.10;;;24.00;52.60;;;;;;5021003;28;20033;-61
2023/09/07 04:29:53;;;;;;;1.10;0.98;;;24.10;52.60;;;;;;5022439;28;20029;-62
2023/09/07 04:32:19;;;;;;;1.00;0.90;;;24.10;52.70;;;;;;5022061;28;20030;-62
2023/09/07 04:34:45;;;;;;;1.67;1.20;;;24.00;52.60;;;;;;5022071;28;20022;-63
2023/09/07 04:37:11;;;;;;;1.40;0.98;;;24.10;52.70;;;;;;5022561;28;20025;-62
2023/09/07 04:39:37;;;;;;;1.40;1.05;;;24.00;52.60;;;;;;5020883;28;20465;-62
2023/09/07 04:42:02;;;;;;;1.13;0.90;;;24.00;52.60;;;;;;5020786;28;20083;-61
2023/09/07 04:44:28;;;;;;;1.40;1.00;;;24.10;52.70;;;;;;5018355;28;20458;-61
2023/09/07 04:46:56;;;;;;;1.35;0.95;;;24.00;52.60;;;;;;5017281;28;20061;-66
2023/09/07 04:49:24;;;;;;;1.20;1.00;;;24.00;52.60;;;;;;5020138;28;20979;-65
2023/09/07 04:51:53;;;;;;;1.30;1.10;;;24.00;52.60;;;;;;5021342;28;20438;-65
2023/09/07 04:54:19;;;;;;;1.45;1.00;;;24.00;52.60;;;;;;5020625;28;20029;-65
2023/09/07 04:56:44;;;;;;;1.38;1.08;;;24.00;52.60;;;;;;5020588;28;20089;-65
2023/09/07 04:59:10;;;;;;;1.40;1.00;;;24.00;52.60;;;;;;5020327;28;20117;-68
2023/09/07 05:01:35;;;;;;;1.08;0.90;;;24.00;52.60;;;;;;5021422;28;20038;-67
2023/09/07 05:04:03;;;;;;;1.38;1.00;;;24.00;52.60;;;;;;5030978;28;20040;-67
2023/09/07 05:06:29;;;;;;;1.40;1.17;;;24.00;52.70;;;;;;5021624;28;20029;-67
2023/09/07 05:08:55;;;;;;;1.50;1.10;;;24.00;52.70;;;;;;5019626;28;20021;-68
2023/09/07 05:11:20;;;;;;;1.80;1.10;;;24.00;52.70;;;;;;5020121;28;20072;-67
2023/09/07 05:13:46;;;;;;;1.30;0.90;;;24.00;52.70;;;;;;5018886;28;20029;-67
2023/09/07 05:16:12;;;;;;;1.10;0.90;;;24.00;52.70;;;;;;5019359;28;20044;-67
2023/09/07 05:18:37;;;;;;;1.65;1.20;;;24.00;52.70;;;;;;5020274;28;20957;-66
2023/09/07 05:21:13;;;;;;;1.27;1.00;;;24.00;52.70;;;;;;5018549;28;20105;-67
2023/09/07 05:23:40;;;;;;;1.40;1.13;;;24.00;52.70;;;;;;5018563;28;20248;-67
2023/09/07 05:26:05;;;;;;;1.15;0.90;;;23.90;52.70;;;;;;5020820;28;20536;-67
2023/09/07 05:28:31;;;;;;;1.30;0.93;;;24.00;52.80;;;;;;5021349;28;20125;-67
2023/09/07 05:30:57;;;;;;;2.05;1.10;;;24.00;52.80;;;;;;5018464;28;20512;-67
2023/09/07 05:33:22;;;;;;;1.80;1.10;;;24.00;52.80;;;;;;5019806;28;20032;-67
2023/09/07 05:35:48;;;;;;;1.45;1.00;;;23.90;52.70;;;;;;5025858;28;20049;-67
2023/09/07 05:38:14;;;;;;;1.00;0.90;;;24.00;52.80;;;;;;5019562;28;20025;-67
2023/09/07 05:40:41;;;;;;;1.42;1.00;;;24.00;52.80;;;;;;5016514;28;20442;-67
2023/09/07 05:43:07;;;;;;;1.40;1.08;;;23.90;52.70;;;;;;5030382;28;20824;-67
2023/09/07 05:45:39;;;;;;;1.20;1.00;;;23.90;52.70;;;;;;5018363;28;20113;-67
2023/09/07 05:48:05;;;;;;;1.30;1.00;;;23.90;52.70;;;;;;5019174;28;20104;-67
2023/09/07 05:50:36;;;;;;;1.48;1.00;;;23.90;53.30;;;;;;5018843;28;20576;-67
2023/09/07 05:53:03;;;;;;;1.33;1.00;;;23.90;52.80;;;;;;5019957;28;20041;-67
2023/09/07 05:55:28;;;;;;;1.73;0.93;;;23.90;52.90;;;;;;5019269;28;20064;-67
2023/09/07 05:57:55;;;;;;;1.05;0.95;;;23.90;52.80;;;;;;5019999;28;20022;-67
2023/09/07 06:00:21;;;;;;;1.35;0.98;;;23.90;52.80;;;;;;5020462;28;20343;-67
2023/09/07 06:02:47;;;;;;;1.50;1.05;;;23.90;52.80;;;;;;5019375;28;20030;-67
2023/09/07 06:05:13;;;;;;;1.70;1.20;;;23.90;52.80;;;;;;5017622;28;20491;-67
2023/09/07 06:07:38;;;;;;;1.30;1.00;;;23.90;52.80;;;;;;5018256;28;20383;-67
2023/09/07 06:10:05;;;;;;;1.40;1.02;;;23.90;52.80;;;;;;5021336;28;20032;-67
2023/09/07 06:12:31;;;;;;;1.50;1.10;;;23.90;52.80;;;;;;5018259;28;20045;-67
2023/09/07 06:14:57;;;;;;;1.60;1.15;;;23.90;52.80;;;;;;5020149;28;20522;-67
2023/09/07 06:17:22;;;;;;;1.75;1.17;;;23.90;52.80;;;;;;5018927;28;20037;-68
2023/09/07 06:19:48;;;;;;;1.00;0.90;;;23.90;52.80;;;;;;5018294;28;20471;-67
2023/09/07 06:22:14;;;;;;;1.30;0.90;;;23.90;52.80;;;;;;5018882;28;20059;-67
2023/09/07 06:24:40;;;;;;;1.33;0.98;;;23.90;52.80;;;;;;5017278;28;20080;-67
2023/09/07 06:27:05;;;;;;;1.80;1.20;;;23.90;52.80;;;;;;5016297;28;20056;-67
2023/09/07 06:29:31;;;;;;;1.40;1.10;;;23.90;52.80;;;;;;5018359;28;20033;-66
2023/09/07 06:31:56;;;;;;;1.30;1.00;;;23.90;52.80;;;;;;5018217;28;20030;-67
2023/09/07 06:34:22;;;;;;;1.40;1.10;;;23.90;52.80;;;;;;5020838;28;20018;-67
2023/09/07 06:36:47;;;;;;;1.33;1.00;;;23.90;52.80;;;;;;5018652;28;20116;-67
2023/09/07 06:39:13;;;;;;;1.33;1.10;;;23.90;53.30;;;;;;5019364;28;20056;-67
2023/09/07 06:41:39;;;;;;;1.50;1.20;;;23.90;52.80;;;;;;5017431;28;20025;-67
2023/09/07 06:44:04;;;;;;;1.23;1.10;;;23.80;52.80;;;;;;5018916;28;20111;-67
2023/09/07 06:46:30;;;;;;;1.75;1.20;;;23.80;52.80;;;;;;5017470;28;20033;-67
2023/09/07 06:48:55;;;;;;;2.60;1.30;;;23.90;52.80;;;;;;5017446;28;20465;-67
2023/09/07 06:51:21;;;;;;;1.40;1.10;;;23.80;52.80;;;;;;5016549;28;20137;-67
2023/09/07 06:53:47;;;;;;;1.55;1.17;;;23.80;52.80;;;;;;5019438;28;20017;-67
2023/09/07 06:56:12;;;;;;;2.35;1.17;;;23.80;52.80;;;;;;5017243;28;20400;-67
2023/09/07 06:58:41;;;;;;;1.98;1.10;;;23.80;52.80;;;;;;5016981;28;20393;-67
2023/09/07 07:01:07;;;;;;;2.05;1.35;;;23.80;52.80;;;;;;5019185;28;20056;-67
2023/09/07 07:03:34;;;;;;;1.75;1.20;;;23.80;52.80;;;;;;5017202;28;20485;-67
2023/09/07 07:06:00;;;;;;;1.60;1.30;;;23.80;52.80;;;;;;5017768;28;20034;-67
2023/09/07 07:08:26;;;;;;;1.48;1.10;;;23.80;52.90;;;;;;5017243;28;20029;-62
2023/09/07 07:10:52;;;;;;;1.50;1.17;;;23.80;52.80;;;;;;5022623;28;20108;-62
2023/09/07 07:13:18;;;;;;;1.52;1.10;;;23.80;52.90;;;;;;5022444;28;20021;-62
2023/09/07 07:15:44;;;;;;;2.65;1.25;;;23.80;52.90;;;;;;5021596;28;20037;-63
2023/09/07 07:18:09;;;;;;;1.77;1.13;;;23.80;52.90;;;;;;5021913;28;20029;-62
2023/09/07 07:20:36;;;;;;;1.70;1.20;;;23.80;52.90;;;;;;5022938;28;20044;-62
2023/09/07 07:23:02;;;;;;;1.85;1.30;;;23.80;52.90;;;;;;5023676;28;20441;-62
2023/09/07 07:25:27;;;;;;;1.98;1.30;;;23.80;52.90;;;;;;5021363;28;20041;-62
2023/09/07 07:27:53;;;;;;;1.75;1.30;;;23.80;52.90;;;;;;5020285;28;20033;-65
2023/09/07 07:30:19;;;;;;;2.42;1.40;;;23.70;52.80;;;;;;5020507;28;20889;-65
2023/09/07 07:32:44;;;;;;;1.55;1.17;;;23.80;52.90;;;;;;5022414;28;20025;-65
2023/09/07 07:35:10;;;;;;;1.88;1.30;;;23.80;52.90;;;;;;5023116;28;20030;-65
2023/09/07 07:37:35;;;;;;;2.00;1.50;;;23.80;52.90;;;;;;5021280;28;20558;-65
2023/09/07 07:40:01;;;;;;;2.08;1.60;;;23.80;52.90;;;;;;5021714;28;20056;-65
2023/09/07 07:42:27;;;;;;;2.03;1.42;;;23.80;52.90;;;;;;5021610;28;20038;-65
2023/09/07 07:44:52;;;;;;;1.70;1.30;;;23.80;52.90;;;;;;5030240;28;20033;-65
2023/09/07 07:47:18;;;;;;;1.70;1.30;;;23.80;52.90;;;;;;5023889;28;20109;-65
2023/09/07 07:49:44;;;;;;;2.00;1.40;;;23.80;52.90;;;;;;5020966;28;20026;-65
2023/09/07 07:52:10;;;;;;;2.20;1.60;;;23.80;52.90;;;;;;5021741;28;20512;-65
2023/09/07 07:54:36;;;;;;;2.10;1.60;;;23.80;52.90;;;;;;5020997;28;20390;-65
2023/09/07 07:57:02;;;;;;;1.98;1.33;;;23.80;52.90;;;;;;5021240;28;20125;-65
2023/09/07 07:59:33;;;;;;;1.98;1.50;;;23.80;52.90;;;;;;5018607;28;20040;-65
2023/09/07 08:01:59;;;;;;;1.95;1.48;;;23.80;52.90;;;;;;5023037;28;20029;-65
2023/09/07 08:04:25;;;;;;;1.95;1.45;;;23.80;52.90;;;;;;5017577;28;20488;-65
2023/09/07 08:06:54;;;;;;;2.20;1.50;;;23.70;52.80;;;;;;5020060;28;20032;-65
2023/09/07 08:09:19;;;;;;;2.00;1.60;;;23.80;52.90;;;;;;5020819;28;20500;-65
2023/09/07 08:11:45;;;;;;;1.95;1.50;;;23.80;52.90;;;;;;5020187;28;20026;-65
2023/09/07 08:14:11;;;;;;;2.50;1.70;;;23.70;52.90;;;;;;5021370;28;20454;-65
2023/09/07 08:16:37;;;;;;;1.90;1.50;;;23.70;52.90;;;;;;5020753;28;20099;-65
2023/09/07 08:19:03;;;;;;;2.20;1.60;;;23.70;52.90;;;;;;5021676;28;20026;-62
2023/09/07 08:21:29;;;;;;;2.47;1.70;;;23.70;52.90;;;;;;5018765;28;20026;-62
2023/09/07 08:23:55;;;;;;;2.40;1.70;;;23.70;52.90;;;;;;5021119;28;20156;-62
2023/09/07 08:26:21;;;;;;;1.90;1.50;;;23.70;52.90;;;;;;5034147;28;20025;-62
2023/09/07 08:28:47;;;;;;;2.35;1.70;;;23.70;52.90;;;;;;5021087;28;20125;-64
2023/09/07 08:31:14;;;;;;;2.30;1.70;;;23.70;53.00;;;;;;5022038;28;20022;-62
2023/09/07 08:33:40;;;;;;;2.42;1.60;;;23.70;52.90;;;;;;5020489;28;20049;-63
2023/09/07 08:36:06;;;;;;;2.08;1.55;;;23.70;53.00;;;;;;5020276;28;20389;-62
2023/09/07 08:38:31;;;;;;;2.13;1.63;;;23.70;53.00;;;;;;5022103;28;20037;-68
2023/09/07 08:41:05;;;;;;;2.05;1.50;;;23.70;53.00;;;;;;5020537;28;20030;-68
2023/09/07 08:43:34;;;;;;;2.65;1.80;;;23.70;53.00;;;;;;5021345;28;20489;-68
2023/09/07 08:46:15;;;;;;;2.10;1.50;;;23.70;53.00;;;;;;5022739;28;20034;-68
2023/09/07 08:48:43;;;;;;;2.20;1.60;;;23.80;53.10;;;;;;5020812;28;20029;-68
2023/09/07 08:51:11;;;;;;;2.40;1.65;;;23.70;53.10;;;;;;5022787;28;20358;-68
2023/09/07 08:53:38;;;;;;;2.67;1.70;;;23.70;53.10;;;;;;5019095;28;20095;-68
2023/09/07 08:56:06;;;;;;;2.25;1.58;;;23.80;53.20;;;;;;5019170;28;20038;-69
2023/09/07 08:58:31;;;;;;;2.70;1.70;;;23.70;53.20;;;;;;5020120;28;20409;-68
2023/09/07 09:00:57;;;;;;;1.90;1.50;;;23.70;53.20;;;;;;5020904;28;20021;-68
2023/09/07 09:03:23;;;;;;;2.30;1.60;;;23.70;53.20;;;;;;5020341;28;20075;-68
2023/09/07 09:05:51;;;;;;;2.60;1.80;;;23.70;53.20;;;;;;5019564;28;20025;-68
2023/09/07 09:08:24;;;;;;;2.10;1.60;;;23.70;53.20;;;;;;5019195;28;20025;-68
2023/09/07 09:10:58;;;;;;;2.70;1.80;;;23.70;53.20;;;;;;5019204;28;20033;-68
2023/09/07 09:13:28;;;;;;;2.08;1.67;;;23.70;53.20;;;;;;5020061;28;20470;-68
2023/09/07 09:15:53;;;;;;;2.40;1.75;;;23.80;53.30;;;;;;5021105;28;20552;-68
2023/09/07 09:18:19;;;;;;;2.30;1.75;;;23.70;53.30;;;;;;5020538;28;20052;-68
2023/09/07 09:20:45;;;;;;;2.47;1.80;;;23.70;53.30;;;;;;5018203;28;20474;-68
2023/09/07 09:23:12;;;;;;;2.53;1.80;;;23.70;53.30;;;;;;5019367;28;20032;-67
2023/09/07 09:25:41;;;;;;;3.55;2.25;;;23.70;53.40;;;;;;5019092;28;20036;-66
2023/09/07 09:28:10;;;;;;;5.30;2.63;;;23.70;53.70;;;;;;5018978;28;20038;-67
2023/09/07 09:30:36;;;;;;;3.35;2.58;;;23.80;53.80;;;;;;5018764;28;20030;-67
2023/09/07 09:33:05;;;;;;;3.35;2.50;;;23.80;53.70;;;;;;5016758;28;20037;-67
2023/09/07 09:35:34;;;;;;;3.40;2.60;;;23.80;53.60;;;;;;5018605;28;20794;-67
2023/09/07 09:38:04;;;;;;;3.33;2.60;;;23.90;53.50;;;;;;5020886;28;20061;-67
2023/09/07 09:40:37;;;;;;;3.30;2.33;;;23.90;53.50;;;;;;5016584;28;20408;-68
2023/09/07 09:43:04;;;;;;;2.80;2.13;;;23.90;53.50;;;;;;5019759;28;20026;-68
2023/09/07 09:45:31;;;;;;;2.70;2.00;;;23.90;53.40;;;;;;5032128;28;20040;-69
2023/09/07 09:48:00;;;;;;;2.50;2.10;;;23.90;53.50;;;;;;5018589;28;20184;-68
2023/09/07 09:50:31;;;;;;;2.67;2.10;;;23.90;53.50;;;;;;5020173;28;20108;-67
2023/09/07 09:52:58;;;;;;;2.55;2.20;;;23.90;53.50;;;;;;5012310;28;20506;-66
2023/09/07 09:55:24;;;;;;;3.13;2.15;;;23.90;53.40;;;;;;5021077;28;20029;-67
2023/09/07 09:57:51;;;;;;;3.25;2.33;;;23.90;53.40;;;;;;5019098;28;20060;-67
2023/09/07 10:02:54;;;;;;;3.10;2.28;;;24.00;53.40;;;;;;5018213;28;20034;-67
2023/09/07 10:05:24;;;;;;;2.50;2.20;;;24.00;53.40;;;;;;5015509;28;20152;-66
2023/09/07 10:07:50;;;;;;;2.95;2.30;;;24.00;53.40;;;;;;5019664;28;20531;-67
2023/09/07 10:10:19;;;;;;;3.53;2.28;;;24.10;53.40;;;;;;5017561;28;20388;-67
2023/09/07 10:12:53;;;;;;;3.20;2.20;;;24.10;53.30;;;;;;5020467;28;20579;-67
2023/09/07 10:15:26;;;;;;;2.90;2.30;;;24.10;53.30;;;;;;5017591;28;20125;-67
2023/09/07 10:18:11;;;;;;;3.53;2.50;;;24.10;53.30;;;;;;5018702;28;20026;-67
2023/09/07 10:21:06;;;;;;;3.83;2.40;;;24.10;53.30;;;;;;5014943;28;20042;-67
2023/09/07 10:23:43;;;;;;;3.55;2.45;;;24.10;53.30;;;;;;5005114;28;20500;-67
2023/09/07 10:26:17;;;;;;;4.32;2.78;;;24.10;53.30;;;;;;5018934;28;20485;-66
2023/09/07 10:28:46;;;;;;;3.22;2.45;;;24.10;53.30;;;;;;5017384;28;20022;-66
2023/09/07 10:31:15;;;;;;;4.57;2.78;;;24.10;53.30;;;;;;5020020;28;20589;-68
2023/09/07 10:33:41;;;;;;;;;;;24.20;53.40;;;;;;5021331;28;20021;-67
2023/09/07 10:36:07;;;;;;;3.47;2.40;;;24.20;53.40;;;;;;5020370;28;19909;-67
2023/09/07 10:38:36;;;;;;;3.50;2.40;;;24.20;53.90;;;;;;5018461;28;20094;-66
2023/09/07 10:41:04;;;;;;;;;;;24.20;53.40;;;;;;5018508;28;20026;-66
2023/09/07 10:43:31;;;;;;;3.50;2.85;;;24.20;53.40;;;;;;5021305;28;19910;-65
2023/09/07 10:45:58;;;;;;;3.65;2.53;;;24.20;53.40;;;;;;5032297;28;20595;-66
2023/09/07 10:48:25;;;;;;;4.80;2.50;;;24.20;53.40;;;;;;5024266;28;20033;-67
2023/09/07 10:50:51;;;;;;;3.72;2.47;;;24.20;53.50;;;;;;5024890;28;20342;-68
2023/09/07 10:53:31;;;;;;;3.78;2.50;;;24.20;53.50;;;;;;5023577;28;20029;-68
2023/09/07 10:55:59;;;;;;;3.92;2.40;;;24.20;53.50;;;;;;5023004;28;20458;-68
2023/09/07 10:58:27;;;;;;;2.97;2.30;;;24.20;53.50;;;;;;5022114;28;20026;-67
2023/09/07 11:00:54;;;;;;;2.95;2.42;;;24.20;53.50;;;;;;5021204;28;20103;-66
2023/09/07 11:03:19;;;;;;;2.90;2.30;;;24.20;53.50;;;;;;5021769;28;20449;-66
2023/09/07 11:05:46;;;;;;;3.10;2.50;;;24.20;53.60;;;;;;5022000;28;20029;-66
2023/09/07 11:08:12;;;;;;;3.38;2.50;;;24.30;53.60;;;;;;5023035;28;20129;-66
2023/09/07 11:10:38;;;;;;;3.75;2.50;;;24.20;53.60;;;;;;5021491;28;20036;-66
2023/09/07 11:13:05;;;;;;;3.67;2.42;;;24.20;53.70;;;;;;5019768;28;20087;-66
2023/09/07 11:15:32;;;;;;;3.38;2.65;;;24.30;53.90;;;;;;5022170;28;20112;-66
2023/09/07 11:17:59;;;;;;;3.15;2.40;;;24.30;53.90;;;;;;5022997;28;20056;-66
2023/09/07 11:20:26;;;;;;;4.18;2.50;;;24.30;53.90;;;;;;5023011;28;20026;-66
2023/09/07 11:22:51;;;;;;;3.33;2.60;;;24.30;53.80;;;;;;5022973;28;20477;-66
2023/09/07 11:25:17;;;;;;;3.80;2.80;;;24.30;53.80;;;;;;5021109;28;20030;-66
2023/09/07 11:27:43;;;;;;;4.05;2.72;;;24.40;53.70;;;;;;5021405;28;20076;-66
2023/09/07 11:30:17;;;;;;;3.95;2.72;;;24.40;53.70;;;;;;5021505;28;20100;-66
2023/09/07 11:32:43;;;;;;;3.53;2.80;;;24.40;53.60;;;;;;5021480;28;20453;-66
2023/09/07 11:35:10;;;;;;;4.05;3.03;;;24.50;53.70;;;;;;5023034;28;20608;-66
2023/09/07 11:37:35;;;;;;;4.72;2.70;;;24.50;53.60;;;;;;5022496;28;20117;-66
2023/09/07 11:40:04;;;;;;;3.95;2.90;;;24.50;53.60;;;;;;5021493;28;20026;-66
2023/09/07 11:42:30;;;;;;;3.17;2.50;;;24.50;53.60;;;;;;5021681;28;20025;-67
2023/09/07 11:44:55;;;;;;;3.38;2.78;;;24.50;53.60;;;;;;5020931;28;20708;-66
2023/09/07 11:47:21;;;;;;;3.03;2.53;;;24.50;53.60;;;;;;5021826;28;20029;-68
2023/09/07 11:49:48;;;;;;;3.97;2.60;;;24.50;53.50;;;;;;5023172;28;20097;-68
2023/09/07 11:52:14;;;;;;;3.45;2.47;;;24.60;53.50;;;;;;5023726;28;20021;-68
2023/09/07 11:54:40;;;;;;;3.85;2.60;;;24.60;53.50;;;;;;5021871;28;20037;-67
2023/09/07 11:57:05;;;;;;;3.33;2.60;;;24.60;53.40;;;;;;5021133;28;20430;-65
2023/09/07 11:59:36;;;;;;;3.65;2.50;;;24.60;53.40;;;;;;5020552;28;20109;-64
2023/09/07 12:02:04;;;;;;;4.47;2.60;;;24.60;53.30;;;;;;5022191;28;20037;-64
2023/09/07 12:04:30;;;;;;;3.20;2.75;;;24.60;53.30;;;;;;5021668;28;20072;-65
2023/09/07 12:06:56;;;;;;;3.25;2.50;;;24.70;53.40;;;;;;5021666;28;20487;-66
2023/09/07 12:09:22;;;;;;;3.30;2.50;;;24.60;53.30;;;;;;5020840;28;20026;-64
2023/09/07 12:11:47;;;;;;;3.17;2.30;;;24.70;53.30;;;;;;5010492;28;20029;-64
2023/09/07 12:14:13;;;;;;;3.33;2.50;;;24.70;53.30;;;;;;5019966;28;20041;-64
2023/09/07 12:16:38;;;;;;;3.30;2.38;;;24.70;53.20;;;;;;5020676;28;20037;-65
2023/09/07 12:19:04;;;;;;;3.20;2.60;;;24.70;53.20;;;;;;5022806;28;20030;-64
2023/09/07 12:21:30;;;;;;;3.47;2.40;;;24.70;53.20;;;;;;5021352;28;20072;-65
2023/09/07 12:23:55;;;;;;;3.20;2.60;;;24.80;53.20;;;;;;5020805;28;20432;-65
2023/09/07 12:26:21;;;;;;;3.42;2.70;;;24.80;53.10;;;;;;5019450;28;20127;-65
2023/09/07 12:28:47;;;;;;;3.35;2.88;;;24.80;53.10;;;;;;5020712;28;20390;-65
2023/09/07 12:31:14;;;;;;;2.92;2.50;;;24.80;53.00;;;;;;5020802;28;20523;-64
2023/09/07 12:33:40;;;;;;;3.15;2.65;;;24.80;53.00;;;;;;5019292;28;20096;-65
2023/09/07 12:36:09;;;;;;;3.67;2.90;;;24.80;53.50;;;;;;5023376;28;20100;-65
2023/09/07 12:38:35;;;;;;;3.28;2.50;;;24.80;52.90;;;;;;5021680;28;20022;-65
2023/09/07 12:41:01;;;;;;;3.58;2.70;;;24.80;52.90;;;;;;5021851;28;20029;-65
2023/09/07 12:43:27;;;;;;;3.53;2.53;;;24.80;52.90;;;;;;5020281;28;20105;-65
2023/09/07 12:45:52;;;;;;;3.45;2.65;;;24.80;52.90;;;;;;5019002;28;20120;-65
2023/09/07 12:48:20;;;;;;;3.20;2.78;;;24.80;52.80;;;;;;5021772;28;20052;-65